Time;durP1;ratioP1;P1;durP2;ratioP2;P2;SDS_P1;SDS_P2;PMS_P1;PMS_P2;Temp;Humidity;BMP_temperature;BMP_pressure;BME280_temperature;BME280_humidity;BME280_pressure;Samples;Min_cycle;Max_cycle;Signal;HPM_P1;HPM_P2
2021/05/11 00:02:12;;;;;;;8.48;4.70;;;;;;;12.45;66.82;101209.91;6337868;28;20183;-70
2021/05/11 00:05:16;;;;;;;5.88;4.72;;;;;;;12.31;67.49;101232.94;6337640;28;20255;-70
2021/05/11 00:08:21;;;;;;;5.35;4.75;;;;;;;12.32;67.67;101231.06;6337824;28;20182;-70
2021/05/11 00:11:27;;;;;;;7.82;5.15;;;;;;;12.44;67.58;101229.28;6336341;28;20469;-70
2021/05/11 00:14:31;;;;;;;6.65;4.70;;;;;;;12.36;67.56;101255.03;6337372;28;20187;-70
2021/05/11 00:17:34;;;;;;;8.10;4.43;;;;;;;12.48;67.33;101231.38;6337316;28;20190;-69
2021/05/11 00:20:37;;;;;;;6.90;4.97;;;;;;;12.33;67.78;101236.31;6342604;28;20186;-71
2021/05/11 00:23:41;;;;;;;5.55;4.50;;;;;;;12.23;68.22;101230.47;6341494;28;20555;-70
2021/05/11 00:26:45;;;;;;;5.95;5.00;;;;;;;12.16;68.41;101243.34;6341513;28;20183;-71
2021/05/11 00:29:48;;;;;;;5.45;5.05;;;;;;;12.20;68.49;101243.72;6342652;28;20258;-70
2021/05/11 00:32:51;;;;;;;6.88;4.60;;;;;;;12.20;68.43;101238.25;6342273;28;20202;-71
2021/05/11 00:35:54;;;;;;;7.82;5.10;;;;;;;12.15;68.60;101236.19;6341067;28;20186;-70
2021/05/11 00:38:58;;;;;;;5.38;4.20;;;;;;;12.11;68.58;101245.88;6342450;28;20182;-70
2021/05/11 00:42:03;;;;;;;6.78;4.57;;;;;;;12.30;68.55;101244.94;6342502;28;20182;-71
2021/05/11 00:45:07;;;;;;;7.30;4.35;;;;;;;12.23;68.59;101227.72;6341362;28;20320;-71
2021/05/11 00:48:10;;;;;;;5.15;4.70;;;;;;;12.11;69.30;101234.94;6342240;28;20205;-71
2021/05/11 00:51:13;;;;;;;;;;;;;;;12.29;68.57;101243.28;6342069;28;20225;-70
2021/05/11 00:54:18;;;;;;;6.25;4.57;;;;;;;12.13;69.01;101238.31;6342246;28;19969;-70
2021/05/11 00:57:21;;;;;;;;;;;;;;;12.07;68.92;101244.63;6340997;28;20444;-71
2021/05/11 01:00:23;;;;;;;;;;;;;;;12.12;69.04;101269.44;6341363;28;19961;-70
2021/05/11 01:03:27;;;;;;;;;;;;;;;12.14;69.18;101250.94;6340866;28;20207;-70
2021/05/11 01:06:30;;;;;;;;;;;;;;;12.07;69.24;101261.03;6340841;28;20199;-70
2021/05/11 01:09:35;;;;;;;5.18;4.47;;;;;;;12.03;69.55;101248.88;6341152;28;20586;-70
2021/05/11 01:12:38;;;;;;;;;;;;;;;12.06;69.59;101259.38;6340660;28;20066;-70
2021/05/11 01:15:45;;;;;;;6.00;4.70;;;;;;;12.01;69.61;101251.00;6341522;28;20274;-70
2021/05/11 01:18:49;;;;;;;9.77;4.90;;;;;;;11.89;70.33;101258.16;6341253;28;20183;-71
2021/05/11 01:21:58;;;;;;;9.07;5.70;;;;;;;12.05;70.54;101263.16;6341485;28;20208;-71
2021/05/11 01:25:05;;;;;;;7.93;4.95;;;;;;;11.94;70.11;101266.56;6340271;28;20207;-71
2021/05/11 01:28:15;;;;;;;5.00;4.40;;;;;;;11.88;70.41;101270.16;6340489;28;20189;-71
2021/05/11 01:48:28;;;;;;;7.22;5.10;;;;;;;11.79;70.97;101285.09;6339270;28;20228;-70
2021/05/11 01:51:49;;;;;;;6.55;4.75;;;;;;;11.67;71.43;101300.47;6339490;28;20293;-71
2021/05/11 01:55:11;;;;;;;5.25;4.82;;;;;;;11.75;71.85;101294.81;6340285;28;20222;-71
2021/05/11 02:25:00;;;;;;;6.75;5.25;;;;;;;11.38;72.75;101328.22;6338420;28;20570;-70
2021/05/11 02:28:03;;;;;;;5.53;5.10;;;;;;;11.37;72.57;101337.50;6339852;28;20183;-70
2021/05/11 02:31:08;;;;;;;6.05;5.00;;;;;;;11.31;72.89;101320.88;6339315;28;20183;-70
2021/05/11 02:34:12;;;;;;;7.57;5.13;;;;;;;11.15;73.91;101332.22;6339437;28;20187;-71
2021/05/11 02:37:15;;;;;;;8.65;5.30;;;;;;;11.21;73.77;101325.94;6338266;28;20497;-70
2021/05/11 02:40:21;;;;;;;5.00;4.65;;;;;;;11.29;72.92;101328.47;6339416;28;20249;-70
2021/05/11 02:43:27;;;;;;;5.53;5.03;;;;;;;11.15;73.56;101332.22;6338893;28;20220;-73
2021/05/11 02:46:34;;;;;;;9.30;5.30;;;;;;;11.25;73.38;101329.91;6370128;27;20189;-69
2021/05/11 02:49:43;;;;;;;5.18;4.57;;;;;;;11.18;73.12;101320.88;6339033;28;20269;-70
2021/05/11 02:52:46;;;;;;;9.75;4.88;;;;;;;11.39;73.06;101338.13;6339271;28;20218;-70
2021/05/11 02:55:49;;;;;;;11.98;5.50;;;;;;;11.33;73.28;101324.25;6337781;28;20414;-70
2021/05/11 02:58:53;;;;;;;5.75;5.30;;;;;;;11.14;73.62;101336.00;6338772;28;20194;-70
2021/05/11 03:01:58;;;;;;;6.90;4.63;;;;;;;11.26;73.74;101323.41;6337715;28;20241;-70
2021/05/11 03:05:01;;;;;;;5.30;4.95;;;;;;;11.43;73.23;101317.53;6338480;28;20217;-70
2021/05/11 03:08:05;;;;;;;14.07;5.03;;;;;;;11.57;72.71;101319.19;6338904;28;20214;-70
2021/05/11 03:11:09;;;;;;;8.63;5.15;;;;;;;11.67;72.13;101314.13;6338853;28;20186;-71
2021/05/11 03:14:13;;;;;;;10.50;5.68;;;;;;;11.67;72.19;101316.84;6337339;28;20187;-71
2021/05/11 03:17:18;;;;;;;13.65;5.40;;;;;;;11.70;72.32;101324.69;6337397;28;20536;-70
2021/05/11 03:20:21;;;;;;;11.70;5.57;;;;;;;11.72;72.26;101308.91;6337184;28;20373;-70
2021/05/11 03:23:25;;;;;;;16.80;5.43;;;;;;;11.73;72.02;101294.19;6338361;28;20182;-69
2021/05/11 03:26:28;;;;;;;12.48;5.70;;;;;;;11.63;72.38;101291.03;6338442;28;20245;-70
2021/05/11 03:29:31;;;;;;;12.88;5.43;;;;;;;11.66;72.64;101285.09;6338384;28;20182;-70
2021/05/11 03:32:35;;;;;;;12.48;5.50;;;;;;;11.48;73.22;101276.75;6337131;28;20198;-70
2021/05/11 03:35:39;;;;;;;5.22;4.85;;;;;;;11.39;74.29;101294.41;6336909;28;20351;-70
2021/05/11 03:38:44;;;;;;;10.27;5.63;;;;;;;11.42;74.58;101299.44;6338169;28;20183;-71
2021/05/11 03:41:50;;;;;;;8.30;5.13;;;;;;;11.51;74.23;101292.69;6337243;28;20403;-70
2021/05/11 03:45:00;;;;;;;8.32;5.07;;;;;;;11.50;73.25;101274.66;6337673;28;20242;-70
2021/05/11 03:48:07;;;;;;;10.90;5.00;;;;;;;11.86;72.70;101270.38;6336881;28;20499;-69
2021/05/11 03:51:10;;;;;;;12.20;5.65;;;;;;;11.66;73.59;101257.78;6336402;28;20226;-70
2021/05/11 03:54:14;;;;;;;9.30;5.75;;;;;;;11.61;73.28;101254.84;6337141;28;20193;-71
2021/05/11 03:57:18;;;;;;;6.40;5.38;;;;;;;11.58;73.80;101260.75;6336683;28;20249;-70
2021/05/11 04:00:22;;;;;;;5.38;4.68;;;;;;;11.39;74.07;101267.06;6337481;28;20183;-70
2021/05/11 04:03:26;;;;;;;6.50;4.68;;;;;;;11.31;74.71;101277.19;6336475;28;20373;-71
2021/05/11 04:06:30;;;;;;;6.18;4.93;;;;;;;11.33;74.58;101269.59;6336803;28;20238;-70
2021/05/11 04:09:36;;;;;;;5.55;5.03;;;;;;;11.58;74.12;101283.44;6336110;28;20206;-69
2021/05/11 04:16:18;;;;;;;7.63;5.53;;;;;;;11.60;73.63;101307.84;6314607;28;20203;-70
2021/05/11 04:19:22;;;;;;;8.15;5.32;;;;;;;11.37;74.38;101307.44;6337106;28;20183;-70
2021/05/11 04:22:26;;;;;;;5.22;4.72;;;;;;;11.50;74.86;101345.69;6336138;28;20519;-70
2021/05/11 04:25:30;;;;;;;9.55;4.95;;;;;;;11.70;74.24;101346.53;6369109;28;20250;-70
2021/05/11 04:28:41;;;;;;;6.78;5.55;;;;;;;11.52;74.36;101343.56;6335942;28;20213;-70
2021/05/11 04:31:45;;;;;;;5.97;5.32;;;;;;;11.63;73.85;101345.69;6337030;28;20252;-70
2021/05/11 04:34:50;;;;;;;6.63;5.03;;;;;;;11.93;73.74;101360.59;6336659;28;20229;-71
2021/05/11 04:37:53;;;;;;;12.38;5.25;;;;;;;12.08;73.04;101338.47;6337139;28;20183;-71
2021/05/11 04:40:57;;;;;;;9.18;5.72;;;;;;;12.22;72.19;101324.53;6336243;28;20190;-71
2021/05/11 04:44:04;;;;;;;14.48;5.88;;;;;;;12.01;73.37;101322.09;6335842;28;20250;-70
2021/05/11 04:47:13;;;;;;;10.25;6.10;;;;;;;11.99;73.79;101335.16;6337131;28;20226;-71
2021/05/11 04:50:21;;;;;;;10.43;5.80;;;;;;;12.10;73.46;101337.19;6337271;28;20235;-71
2021/05/11 04:53:25;;;;;;;12.15;6.03;;;;;;;12.10;73.49;101348.13;6337252;28;20183;-70
2021/05/11 04:56:29;;;;;;;22.13;6.32;;;;;;;12.28;72.95;101340.09;6336776;28;20218;-70
2021/05/11 04:59:32;;;;;;;25.08;6.35;;;;;;;12.44;71.88;101342.34;6336874;28;20267;-70
2021/05/11 05:02:38;;;;;;;16.38;5.97;;;;;;;12.39;72.32;101355.84;6336958;28;20228;-70
2021/05/11 05:05:44;;;;;;;16.30;6.05;;;;;;;12.17;72.77;101348.94;6339627;28;20278;-70
2021/05/11 05:08:48;;;;;;;14.25;6.40;;;;;;;12.44;72.50;101355.19;6341253;28;20190;-70
2021/05/11 05:11:51;;;;;;;14.55;6.90;;;;;;;12.55;71.78;101349.88;6340502;28;20214;-69
2021/05/11 05:14:55;;;;;;;21.73;7.10;;;;;;;12.69;71.19;101347.06;6340494;28;20258;-70
2021/05/11 05:17:58;;;;;;;23.00;6.72;;;;;;;12.76;70.80;101342.41;6340567;28;20282;-70
2021/05/11 05:21:06;;;;;;;27.02;6.45;;;;;;;12.79;70.96;101341.97;6340995;28;20214;-70
2021/05/11 05:24:11;;;;;;;20.77;6.70;;;;;;;12.79;71.33;101359.22;6341264;28;20221;-71
2021/05/11 05:27:19;;;;;;;16.85;5.85;;;;;;;12.85;70.90;101349.28;6339831;28;20398;-70
2021/05/11 05:30:24;;;;;;;22.70;6.40;;;;;;;12.86;71.20;101342.78;6339892;28;20183;-71
2021/05/11 05:33:32;;;;;;;11.32;5.95;;;;;;;12.86;70.84;101353.72;6340429;28;20253;-72
2021/05/11 05:36:37;;;;;;;9.40;5.68;;;;;;;12.89;71.12;101364.25;6340580;28;20187;-71
2021/05/11 05:39:42;;;;;;;18.90;6.30;;;;;;;12.98;70.74;101382.09;6339544;28;20189;-71
2021/05/11 05:42:46;;;;;;;12.82;5.70;;;;;;;13.10;70.86;101377.59;6340185;28;20183;-71
2021/05/11 05:45:52;;;;;;;14.18;5.30;;;;;;;13.03;70.65;101343.91;6338961;28;20568;-71
2021/05/11 05:48:56;;;;;;;13.50;5.20;;;;;;;13.28;70.05;101368.63;6339686;28;20252;-72
2021/05/11 05:52:03;;;;;;;8.63;5.25;;;;;;;13.45;70.20;101365.16;6310768;28;20248;-71
2021/05/11 05:55:12;;;;;;;7.18;5.28;;;;;;;13.52;70.02;101365.94;6289753;28;20198;-71
2021/05/11 05:58:15;;;;;;;11.70;5.18;;;;;;;13.71;68.70;101375.88;6288717;28;20196;-71
2021/05/11 06:01:26;;;;;;;15.80;5.65;;;;;;;13.85;68.82;101359.28;6289056;28;20247;-70
2021/05/11 06:04:41;;;;;;;13.43;5.30;;;;;;;14.02;69.18;101376.88;6289852;28;20248;-70
2021/05/11 06:07:45;;;;;;;8.30;4.72;;;;;;;14.13;68.48;101378.84;6289746;28;20249;-70
2021/05/11 06:10:53;;;;;;;19.13;5.95;;;;;;;14.21;68.41;101375.81;6289840;28;20190;-70
2021/05/11 06:14:08;;;;;;;10.77;5.60;;;;;;;14.30;68.69;101379.94;6288651;28;20472;-70
2021/05/11 06:17:16;;;;;;;10.18;5.30;;;;;;;14.52;67.61;101372.94;6288746;28;20188;-71
2021/05/11 06:20:20;;;;;;;12.68;5.15;;;;;;;14.63;67.34;101374.09;6288070;28;20253;-70
2021/05/11 06:23:25;;;;;;;28.60;5.57;;;;;;;14.70;66.52;101370.19;6288723;28;20215;-70
2021/05/11 06:26:28;;;;;;;14.55;5.10;;;;;;;14.83;66.82;101356.28;6288661;28;20219;-70
2021/05/11 06:29:34;;;;;;;15.43;5.45;;;;;;;14.82;67.10;101351.84;6287868;28;20412;-71
2021/05/11 06:32:39;;;;;;;11.27;4.90;;;;;;;15.01;67.20;101367.22;6288033;28;20270;-69
2021/05/11 06:35:43;;;;;;;18.60;4.95;;;;;;;15.22;67.84;101371.34;6286682;28;20275;-69
2021/05/11 06:38:48;;;;;;;5.75;4.70;;;;;;;15.30;67.70;101370.19;6287780;28;20351;-69
2021/05/11 06:41:54;;;;;;;14.02;4.25;;;;;;;15.51;65.22;101377.91;6288974;28;20270;-70
2021/05/11 06:45:05;;;;;;;14.10;4.60;;;;;;;15.60;65.03;101371.81;6287654;28;20325;-70
2021/05/11 06:48:15;;;;;;;16.08;5.50;;;;;;;15.67;66.81;101366.19;6293837;28;20199;-71
2021/05/11 06:54:42;;;;;;;12.95;5.50;;;;;;;15.90;65.69;101379.97;6313099;28;20261;-71
2021/05/11 06:57:46;;;;;;;7.72;5.03;;;;;;;16.00;66.16;101374.69;6313023;28;20250;-71
2021/05/11 07:00:54;;;;;;;7.55;4.82;;;;;;;16.16;65.74;101367.63;6313044;28;20247;-71
2021/05/11 07:03:57;;;;;;;12.55;4.80;;;;;;;16.26;65.67;101360.44;6312116;28;20214;-71
2021/05/11 07:07:08;;;;;;;8.98;4.97;;;;;;;16.38;64.51;101362.34;6312291;28;20274;-71
2021/05/11 07:10:28;;;;;;;12.55;5.40;;;;;;;16.53;64.71;101370.97;6311866;28;20375;-71
2021/05/11 07:13:32;;;;;;;17.45;5.35;;;;;;;16.49;64.31;101355.97;6313016;28;20254;-70
2021/05/11 07:16:36;;;;;;;15.85;4.78;;;;;;;16.71;63.32;101370.81;6311763;28;20188;-70
2021/05/11 07:19:40;;;;;;;14.50;5.90;;;;;;;16.84;63.52;101353.97;6311736;28;20184;-71
2021/05/11 07:22:44;;;;;;;9.00;4.80;;;;;;;16.98;63.55;101358.09;6313140;28;20251;-71
2021/05/11 07:25:57;;;;;;;7.45;4.93;;;;;;;16.99;62.44;101361.69;6312576;28;20210;-70
2021/05/11 07:29:06;;;;;;;9.77;4.65;;;;;;;17.04;63.36;101362.63;6311668;28;20184;-70
2021/05/11 07:32:11;;;;;;;9.65;4.68;;;;;;;17.24;62.43;101351.97;6312578;28;20467;-71
2021/05/11 07:35:15;;;;;;;11.82;5.22;;;;;;;17.21;61.65;101346.94;6311645;28;20196;-71
2021/05/11 07:38:19;;;;;;;13.70;4.90;;;;;;;17.21;62.44;101357.97;6312556;28;20209;-70
2021/05/11 07:41:24;;;;;;;12.23;4.85;;;;;;;17.30;62.39;101356.50;6311498;28;20219;-71
2021/05/11 07:44:28;;;;;;;10.10;5.07;;;;;;;17.38;62.44;101361.59;6312334;28;20183;-71
2021/05/11 07:47:37;;;;;;;17.65;5.22;;;;;;;17.42;62.66;101362.78;6310692;28;20600;-71
2021/05/11 08:04:27;;;;;;;7.88;4.65;;;;;;;18.07;60.61;101345.63;6311536;28;20225;-71
2021/05/11 08:17:41;;;;;;;9.80;3.85;;;;;;;18.24;59.65;101368.53;6310618;28;20443;-70
2021/05/11 08:27:42;;;;;;;18.45;4.95;;;;;;;18.27;59.51;101356.97;6311432;28;20212;-69
2021/05/11 08:30:47;;;;;;;7.57;4.47;;;;;;;18.32;59.15;101359.81;6310338;28;20215;-70
2021/05/11 08:33:51;;;;;;;11.77;3.80;;;;;;;18.43;58.87;101360.78;6311826;28;20183;-69
2021/05/11 08:36:54;;;;;;;5.32;4.00;;;;;;;18.49;58.97;101348.75;6311506;28;20188;-70
2021/05/11 08:39:59;;;;;;;7.95;4.40;;;;;;;18.58;60.01;101352.72;6313611;28;20251;-69
2021/05/11 08:43:24;;;;;;;7.20;4.53;;;;;;;18.51;59.16;101355.69;6315320;28;20326;-70
2021/05/11 08:46:28;;;;;;;6.50;4.32;;;;;;;18.66;60.88;101360.56;6316217;28;20298;-70
2021/05/11 08:49:32;;;;;;;4.28;3.72;;;;;;;18.77;60.91;101352.09;6315430;28;20235;-70
2021/05/11 08:52:52;;;;;;;9.48;4.20;;;;;;;18.82;58.59;101369.88;6316412;28;20234;-70
2021/05/11 09:06:35;;;;;;;6.25;3.90;;;;;;;18.98;59.25;101360.63;6315762;28;20237;-70
2021/05/11 09:09:58;;;;;;;9.52;4.35;;;;;;;19.08;59.21;101369.06;6315488;28;20222;-71
2021/05/11 09:23:29;;;;;;;6.53;4.10;;;;;;;19.04;57.99;101371.50;6315999;28;20267;-70
2021/05/11 09:23:45;;;;;;;5.35;3.95;;;;;;;19.18;58.28;101363.63;6297646;28;20213;-71
2021/05/11 09:26:52;;;;;;;6.63;3.92;;;;;;;19.21;57.81;101368.63;6315277;28;20239;-71
2021/05/11 09:33:31;;;;;;;11.15;4.18;;;;;;;19.33;57.03;101363.78;6312547;28;20199;-70
2021/05/11 09:57:09;;;;;;;6.93;3.97;;;;;;;19.57;56.21;101344.94;6314475;28;20219;-71
2021/05/11 10:39:21;;;;;;;4.93;3.60;;;;;;;20.17;54.13;101355.59;6313927;28;20298;-71
2021/05/11 10:43:42;;;;;;;3.72;3.63;;;;;;;20.45;54.18;101381.03;6338183;28;20221;-71
2021/05/11 10:46:46;;;;;;;12.35;3.78;;;;;;;20.58;52.99;101374.16;6339121;28;20198;-70
2021/05/11 10:49:50;;;;;;;9.07;3.88;;;;;;;20.56;52.80;101387.44;6330345;28;20272;-70
2021/05/11 10:53:33;;;;;;;4.80;3.53;;;;;;;20.46;53.62;101381.84;6319576;28;20266;-71
2021/05/11 10:56:48;;;;;;;4.88;3.70;;;;;;;20.52;53.11;101391.84;6337226;28;20515;-71
2021/05/11 11:03:26;;;;;;;4.30;3.50;;;;;;;20.50;52.12;101388.53;6328491;28;20198;-72
2021/05/11 11:07:04;;;;;;;4.80;3.60;;;;;;;20.51;51.91;101401.28;6338212;28;20183;-71
2021/05/11 11:10:10;;;;;;;5.00;3.25;;;;;;;20.47;51.44;101389.06;6336866;28;20221;-70
2021/05/11 11:13:14;;;;;;;9.02;3.33;;;;;;;20.54;50.98;101384.13;6337380;28;20236;-73
2021/05/11 11:16:18;;;;;;;3.92;3.28;;;;;;;20.47;51.12;101377.97;6338437;28;20189;-70
2021/05/11 11:19:23;;;;;;;3.22;3.10;;;;;;;20.56;51.08;101382.75;6337777;28;20232;-70
2021/05/11 11:25:59;;;;;;;4.45;3.15;;;;;;;20.68;50.46;101378.91;6338009;28;20214;-70
2021/05/11 11:29:05;;;;;;;3.92;3.53;;;;;;;20.53;50.32;101355.56;6337677;28;20239;-71
2021/05/11 11:32:09;;;;;;;3.85;3.53;;;;;;;20.72;50.30;101366.19;6337319;28;20183;-71
2021/05/11 11:35:14;;;;;;;3.75;3.47;;;;;;;20.76;50.15;101384.75;6337848;28;20183;-71
2021/05/11 11:38:23;;;;;;;3.70;3.40;;;;;;;20.75;50.22;101385.84;6337820;28;20187;-71
2021/05/11 11:41:28;;;;;;;3.47;3.33;;;;;;;20.73;49.59;101388.06;6337438;28;20229;-71
2021/05/11 11:44:35;;;;;;;3.85;3.33;;;;;;;20.72;49.44;101386.44;6336754;28;20461;-71
2021/05/11 11:47:49;;;;;;;4.10;3.00;;;;;;;20.78;49.72;101379.78;6336348;28;20210;-73
2021/05/11 11:51:00;;;;;;;5.85;3.50;;;;;;;20.77;49.95;101386.44;6337572;28;20241;-70
2021/05/11 11:54:09;;;;;;;3.60;3.40;;;;;;;20.85;50.07;101380.34;6335967;28;20546;-70
2021/05/11 12:00:42;;;;;;;7.00;3.35;;;;;;;20.95;49.40;101380.41;6336791;28;20214;-70
2021/05/11 12:03:46;;;;;;;4.30;3.63;;;;;;;20.99;48.88;101369.59;6335693;28;20183;-71
2021/05/11 12:06:52;;;;;;;6.32;3.58;;;;;;;21.07;49.20;101367.16;6335793;28;20404;-70
2021/05/11 12:09:55;;;;;;;3.60;3.40;;;;;;;21.19;49.08;101370.50;6337093;28;20277;-70
2021/05/11 12:13:03;;;;;;;3.67;3.13;;;;;;;21.27;49.20;101366.34;6337158;28;20255;-72
2021/05/11 12:16:16;;;;;;;4.57;3.20;;;;;;;21.09;47.41;101347.44;6335544;28;20300;-71
2021/05/11 12:19:23;;;;;;;3.47;3.00;;;;;;;21.16;47.51;101348.84;6337410;28;20186;-71
2021/05/11 12:22:28;;;;;;;3.55;3.35;;;;;;;21.13;47.00;101338.28;6336170;28;20190;-71
2021/05/11 12:25:31;;;;;;;3.67;3.38;;;;;;;21.15;47.41;101341.66;6336851;28;20246;-70
2021/05/11 12:28:36;;;;;;;8.20;3.30;;;;;;;21.19;46.13;101345.53;6335545;28;20508;-71
2021/05/11 12:31:42;;;;;;;3.20;3.05;;;;;;;21.21;44.83;101332.19;6335755;28;20501;-72
2021/05/11 12:35:03;;;;;;;3.50;2.92;;;;;;;21.40;44.46;101342.78;6336654;28;20226;-70
2021/05/11 12:38:19;;;;;;;5.38;3.10;;;;;;;21.47;44.84;101346.94;6335689;28;20470;-71
2021/05/11 12:41:30;;;;;;;3.40;2.78;;;;;;;21.55;45.04;101346.38;6335663;28;20183;-70
2021/05/11 12:44:34;;;;;;;3.20;2.90;;;;;;;21.68;44.44;101350.56;6335706;28;20190;-72
2021/05/11 12:47:42;;;;;;;3.35;3.05;;;;;;;21.76;44.87;101336.09;6336542;28;20183;-71
2021/05/11 12:50:46;;;;;;;3.38;3.00;;;;;;;21.86;44.54;101341.69;6335615;28;20303;-70
2021/05/11 12:53:51;;;;;;;3.10;3.00;;;;;;;21.84;45.49;101335.56;6335264;28;20301;-71
2021/05/11 13:00:36;;;;;;;4.72;2.83;;;;;;;21.86;45.78;101330.56;6259165;28;20188;-71
2021/05/11 13:03:48;;;;;;;3.30;3.00;;;;;;;22.00;46.08;101342.78;6335681;28;20189;-71
2021/05/11 13:13:47;;;;;;;8.82;3.10;;;;;;;21.89;46.35;101329.19;6336376;28;20183;-70
2021/05/11 13:16:57;;;;;;;3.42;3.20;;;;;;;21.95;46.87;101328.91;6335734;28;20214;-71
2021/05/11 13:20:23;;;;;;;4.93;3.10;;;;;;;21.94;46.28;101327.22;6335080;28;20384;-70
2021/05/11 13:26:49;;;;;;;3.97;2.80;;;;;;;21.86;46.52;101341.69;6337451;28;20202;-72
2021/05/11 13:30:07;;;;;;;3.03;2.78;;;;;;;21.86;46.96;101352.78;6340381;28;20207;-70
2021/05/11 13:33:24;;;;;;;5.82;2.95;;;;;;;21.92;46.88;101346.13;6340228;28;20199;-71
2021/05/11 13:36:27;;;;;;;7.03;3.20;;;;;;;22.10;46.72;101344.69;6339464;28;20380;-70
2021/05/11 13:39:31;;;;;;;10.30;3.10;;;;;;;22.18;46.43;101350.53;6340090;28;20258;-69
2021/05/11 13:42:36;;;;;;;13.55;3.60;;;;;;;22.20;46.22;101353.84;6340738;28;20190;-70
2021/05/11 13:45:40;;;;;;;4.97;2.80;;;;;;;22.10;45.84;101345.53;6340713;28;20214;-70
2021/05/11 13:48:46;;;;;;;13.45;3.65;;;;;;;22.21;45.05;101347.16;6340259;28;20311;-70
2021/05/11 13:51:51;;;;;;;4.13;2.97;;;;;;;22.06;45.46;101341.66;6340686;28;20258;-69
2021/05/11 13:54:57;;;;;;;5.22;3.22;;;;;;;22.02;45.99;101346.13;6340491;28;20205;-69
2021/05/11 14:04:51;;;;;;;6.30;3.53;;;;;;;21.66;46.07;101339.72;6340344;28;20189;-70
2021/05/11 14:07:58;;;;;;;9.18;3.60;;;;;;;21.95;47.01;101345.56;6339919;28;20183;-71
2021/05/11 14:11:02;;;;;;;5.82;3.22;;;;;;;21.90;47.08;101348.34;6340202;28;20189;-71
2021/05/11 14:14:09;;;;;;;10.68;3.70;;;;;;;21.86;46.82;101338.91;6338889;28;20205;-71
2021/05/11 14:17:13;;;;;;;9.30;4.20;;;;;;;21.51;45.97;101344.44;6340454;28;20258;-71
2021/05/11 14:20:17;;;;;;;5.00;3.50;;;;;;;21.42;46.26;101357.19;6339740;28;20222;-71
2021/05/11 14:23:20;;;;;;;3.90;3.50;;;;;;;20.97;46.54;101342.13;6338623;28;20236;-72
2021/05/11 14:26:25;;;;;;;5.50;3.83;;;;;;;20.55;47.85;101341.41;6339525;28;20337;-73
2021/05/11 14:29:30;;;;;;;7.95;3.85;;;;;;;20.12;48.97;101341.72;6339802;28;20210;-71
2021/05/11 14:32:33;;;;;;;6.80;4.03;;;;;;;20.08;49.24;101351.69;6339268;28;20218;-71
2021/05/11 14:35:37;;;;;;;7.28;3.80;;;;;;;20.03;49.15;101348.88;6338135;28;20466;-71
2021/05/11 14:38:41;;;;;;;8.13;3.80;;;;;;;19.92;49.65;101332.19;6337677;28;20378;-71
2021/05/11 14:41:45;;;;;;;5.63;4.00;;;;;;;19.64;50.11;101340.84;6337753;28;20221;-72
2021/05/11 14:44:53;;;;;;;4.53;4.22;;;;;;;19.63;50.19;101350.25;6338099;28;20182;-72
2021/05/11 14:47:56;;;;;;;6.43;3.67;;;;;;;19.53;50.71;101349.31;6339235;28;20222;-73
2021/05/11 14:51:01;;;;;;;6.53;3.88;;;;;;;19.83;50.00;101350.41;6337937;28;20597;-72
2021/05/11 14:54:05;;;;;;;4.72;3.95;;;;;;;19.97;49.40;101346.06;6338961;28;20190;-71
2021/05/11 14:57:10;;;;;;;5.85;3.50;;;;;;;20.03;49.92;101326.72;6338726;28;20187;-71
2021/05/11 15:00:15;;;;;;;6.35;3.50;;;;;;;20.32;49.60;101325.25;6339069;28;20186;-71
2021/05/11 15:03:27;;;;;;;8.10;4.63;;;;;;;20.28;49.88;101329.66;6337872;28;20229;-71
2021/05/11 15:06:52;;;;;;;6.05;3.55;;;;;;;20.16;49.04;101337.34;6338168;28;20183;-71
2021/05/11 15:09:56;;;;;;;12.63;3.95;;;;;;;20.23;49.09;101326.84;6337394;28;20273;-70
2021/05/11 15:13:01;;;;;;;8.90;3.72;;;;;;;20.02;48.87;101325.03;6337614;28;20226;-70
2021/05/11 15:16:10;;;;;;;14.20;4.18;;;;;;;19.91;49.62;101313.91;6337330;28;20264;-72
2021/05/11 15:19:14;;;;;;;9.80;4.20;;;;;;;19.96;49.44;101321.41;6337385;28;20191;-71
2021/05/11 15:22:20;;;;;;;6.07;3.70;;;;;;;20.04;49.52;101322.84;6337596;28;20406;-71
2021/05/11 15:25:26;;;;;;;5.65;3.80;;;;;;;19.95;49.51;101325.28;6338090;28;20214;-71
2021/05/11 15:28:29;;;;;;;8.13;4.28;;;;;;;20.08;49.20;101318.44;6337043;28;20541;-71
2021/05/11 15:31:34;;;;;;;9.82;4.47;;;;;;;20.04;49.46;101322.84;6338346;28;20252;-69
2021/05/11 15:34:37;;;;;;;10.93;3.88;;;;;;;20.02;49.72;101313.97;6335758;28;20198;-71
2021/05/11 15:37:43;;;;;;;7.53;4.15;;;;;;;19.88;50.16;101317.19;6338218;28;20219;-70
2021/05/11 15:40:46;;;;;;;12.57;4.05;;;;;;;19.94;49.92;101310.59;6337514;28;20274;-71
2021/05/11 15:43:50;;;;;;;4.35;4.05;;;;;;;20.03;49.77;101315.66;6336870;28;20439;-71
2021/05/11 15:46:54;;;;;;;12.60;4.20;;;;;;;19.69;50.44;101310.44;6336957;28;20378;-71
2021/05/11 15:49:58;;;;;;;5.97;4.28;;;;;;;20.00;49.76;101311.47;6337046;28;20269;-71
2021/05/11 15:53:04;;;;;;;9.05;3.83;;;;;;;19.96;49.77;101319.47;6337637;28;20183;-71
2021/05/11 15:56:09;;;;;;;6.47;4.05;;;;;;;19.92;50.13;101320.28;6336659;28;20235;-71
2021/05/11 15:59:12;;;;;;;10.98;4.55;;;;;;;19.86;50.10;101316.63;6337136;28;20436;-70
2021/05/11 16:02:17;;;;;;;4.47;3.85;;;;;;;20.08;49.77;101318.44;6336458;28;20467;-71
2021/05/11 16:05:22;;;;;;;4.15;3.85;;;;;;;19.96;50.22;101316.69;6336919;28;20183;-71
2021/05/11 16:08:28;;;;;;;5.78;4.15;;;;;;;19.81;50.04;101300.00;6336283;28;20429;-71
2021/05/11 16:11:31;;;;;;;6.25;4.57;;;;;;;19.76;50.52;101316.56;6336249;28;20230;-71
2021/05/11 16:14:35;;;;;;;7.72;4.07;;;;;;;19.61;50.44;101318.38;6337692;28;20221;-71
2021/05/11 16:17:40;;;;;;;8.77;4.45;;;;;;;19.24;51.63;101326.63;6336709;28;20189;-72
2021/05/11 16:20:44;;;;;;;9.73;4.40;;;;;;;19.07;51.51;101328.66;6336635;28;20193;-71
2021/05/11 16:23:48;;;;;;;9.30;4.30;;;;;;;18.85;50.79;101341.72;6337146;28;20183;-71
2021/05/11 16:26:52;;;;;;;7.65;4.00;;;;;;;18.64;51.23;101332.34;6336242;28;20554;-71
2021/05/11 16:29:57;;;;;;;6.85;4.07;;;;;;;18.59;51.66;101333.09;6336865;28;20250;-73
2021/05/11 16:33:03;;;;;;;6.40;3.92;;;;;;;18.40;51.89;101328.97;6337196;28;20190;-72
2021/05/11 16:36:08;;;;;;;11.00;3.85;;;;;;;18.43;52.24;101328.47;6336976;28;20183;-70
2021/05/11 16:39:11;;;;;;;7.75;4.13;;;;;;;18.40;52.28;101328.97;6336660;28;20186;-70
2021/05/11 16:42:16;;;;;;;9.20;4.70;;;;;;;18.28;52.80;101336.56;6336458;28;20183;-71
2021/05/11 16:45:19;;;;;;;6.18;4.85;;;;;;;18.13;53.48;101339.91;6335792;28;20455;-72
2021/05/11 16:48:23;;;;;;;4.20;3.95;;;;;;;18.06;53.30;101330.16;6337207;28;20198;-71
2021/05/11 16:51:28;;;;;;;23.90;10.55;;;;;;;18.17;52.96;101329.22;6335851;28;20226;-72
2021/05/11 16:54:31;;;;;;;7.13;4.50;;;;;;;18.06;53.02;101332.91;6336403;28;20221;-71
2021/05/11 16:57:35;;;;;;;5.38;4.97;;;;;;;17.83;53.87;101339.47;6336717;28;20183;-71
2021/05/11 17:00:40;;;;;;;5.35;4.85;;;;;;;17.40;54.87;101344.81;6337191;28;20470;-71
2021/05/11 17:03:44;;;;;;;4.32;4.03;;;;;;;17.48;54.54;101345.25;6340677;28;20203;-71
2021/05/11 17:06:48;;;;;;;8.35;4.70;;;;;;;17.50;54.14;101345.81;6340779;28;20246;-71
2021/05/11 17:09:52;;;;;;;10.45;4.55;;;;;;;17.36;53.78;101322.41;6340385;28;20221;-71
2021/05/11 17:12:57;;;;;;;4.72;4.30;;;;;;;17.32;54.24;101359.00;6341209;28;20236;-70
2021/05/11 17:16:01;;;;;;;9.15;4.38;;;;;;;17.40;53.96;101355.84;6340142;28;20558;-71
2021/05/11 17:19:06;;;;;;;4.55;4.20;;;;;;;17.34;54.32;101365.94;6340891;28;20253;-71
2021/05/11 17:22:10;;;;;;;10.20;5.38;;;;;;;17.23;54.49;101366.84;6339981;28;20254;-71
2021/05/11 17:25:14;;;;;;;12.55;4.50;;;;;;;17.02;55.16;101370.31;6340837;28;20190;-71
2021/05/11 17:28:19;;;;;;;10.05;5.40;;;;;;;16.88;55.73;101375.28;6339816;28;20221;-71
2021/05/11 17:31:24;;;;;;;5.95;4.40;;;;;;;17.09;54.52;101376.50;6339559;28;20411;-70
2021/05/11 17:34:34;;;;;;;4.60;4.20;;;;;;;16.94;54.81;101373.47;6339838;28;20221;-71
2021/05/11 17:37:38;;;;;;;11.75;4.63;;;;;;;16.95;54.94;101375.13;6339236;28;20206;-70
2021/05/11 17:40:42;;;;;;;8.75;4.72;;;;;;;16.50;56.37;101379.69;6340778;28;20254;-71